CST,Max TemperatureF,Mean TemperatureF,Min TemperatureF,Max Dew PointF,MeanDew PointF,Min DewpointF,Max Humidity, Mean Humidity, Min Humidity, Max Sea Level PressureIn, Mean Sea Level PressureIn, Min Sea Level PressureIn, Max VisibilityMiles, Mean VisibilityMiles, Min VisibilityMiles, Max Wind SpeedMPH, Mean Wind SpeedMPH, Max Gust SpeedMPH,PrecipitationIn, CloudCover, Events, WindDirDegrees
2013-1-1,31,24,17,30,20,12,95,79,64,30.28,30.19,30.12,10,9,2,14,6,17,0.00,6,Snow,346
2013-1-2,32,22,12,18,13,9,86,76,48,30.28,30.24,30.20,10,9,6,9,2,,0.00,1,,183
2013-1-3,41,30,20,28,22,16,84,75,56,30.39,30.30,30.21,10,10,7,18,4,,0.00,2,,257
2013-1-4,41,32,23,25,22,19,85,68,42,30.42,30.35,30.31,10,10,10,16,7,,0.00,0,,225
2013-1-5,44,36,27,36,26,21,93,71,53,30.32,30.23,30.10,10,10,10,12,5,,0.00,5,,174
2013-1-6,43,34,26,32,27,19,86,72,48,30.39,30.21,30.08,10,10,7,17,11,29,0.00,4,,272
2013-1-7,44,34,23,27,23,20,90,80,49,30.40,30.33,30.16,10,8,7,17,4,23,0.00,0,,150
2013-1-8,53,40,27,36,28,21,86,67,30,30.22,30.16,30.11,10,10,7,14,5,,0.00,3,,158
2013-1-9,57,48,40,43,36,25,93,68,33,30.48,30.35,30.13,10,10,10,12,6,,0.00,3,Rain,244
2013-1-10,60,50,41,58,40,30,94,75,54,30.47,30.18,29.78,10,7,0,17,8,21,0.28,6,Fog-Rain,99
2013-1-11,62,58,53,58,51,48,93,82,63,29.88,29.82,29.76,10,10,7,21,11,29,0.16,4,,193
2013-1-12,59,46,34,52,43,32,90,79,48,29.96,29.88,29.81,10,8,2,25,12,29,0.24,4,Rain-Snow,258
2013-1-13,35,28,20,32,24,16,92,84,60,30.37,30.12,29.92,10,10,5,21,8,17,0.01,5,,308
2013-1-14,28,24,19,20,17,14,87,79,59,30.49,30.42,30.37,10,10,10,9,4,,0.00,1,,321
2013-1-15,32,26,20,25,20,17,89,80,64,30.43,30.31,30.12,10,10,10,15,2,,0.00,4,,355
2013-1-16,42,31,20,27,21,10,93,70,33,30.16,30.11,30.04,10,9,7,12,4,,0.00,2,,253
2013-1-17,41,34,27,32,26,16,82,70,36,30.49,30.29,30.12,10,10,10,23,6,,0.00,4,,295
2013-1-18,48,37,26,28,24,22,86,68,37,30.50,30.35,30.13,10,10,10,21,6,28,0.00,0,,182
2013-1-19,64,52,39,36,29,27,67,51,24,30.14,30.07,29.91,10,10,10,21,13,24,0.00,0,,224
2013-1-20,46,36,26,30,15,7,68,47,32,30.35,30.27,30.12,10,10,10,18,12,32,0.00,3,,327
2013-1-21,26,21,16,19,5,-6,86,49,26,30.40,30.34,30.30,10,10,10,21,10,32,0.00,3,,304
2013-1-22,21,17,13,14,5,0,77,59,45,30.49,30.40,30.14,10,10,3,16,4,,0.00,4,Snow,292
2013-1-23,41,28,15,25,16,11,86,70,39,30.38,30.30,30.15,10,10,8,18,4,20,0.00,1,,301
2013-1-24,30,24,17,16,6,1,63,46,33,30.62,30.44,30.27,10,10,10,18,10,20,0.00,4,,41
2013-1-25,42,36,29,20,13,5,59,45,34,30.28,30.18,30.11,10,10,10,15,7,17,0.00,5,,228
2013-1-26,39,32,24,21,16,7,64,52,28,30.41,30.31,30.23,10,10,10,12,6,,0.00,1,,33
2013-1-27,51,40,29,48,31,18,93,77,60,30.32,30.16,29.98,10,7,2,20,9,25,0.00,5,Rain,138
2013-1-28,69,60,51,61,55,49,90,86,73,29.98,29.93,29.87,10,8,5,18,10,22,0.00,6,,169
2013-1-29,68,62,55,61,58,53,94,86,78,29.86,29.69,29.45,10,9,2,23,14,28,0.33,6,Rain,168
2013-1-30,55,43,30,53,37,19,94,79,60,29.90,29.59,29.38,10,10,7,28,14,40,0.31,8,Rain-Snow,238
2013-1-31,33,24,14,23,15,-3,73,61,47,30.38,30.06,29.91,10,9,4,23,16,30,0.00,6,Snow,275